createdAt,value
2023-04-02T00:01:01.982Z,8.18
2023-04-02T00:03:42.295Z,8.19
2023-04-02T00:06:32.884Z,8.21
2023-04-02T00:09:24.009Z,8.24
2023-04-02T00:11:55.670Z,8.21
2023-04-02T00:14:36.243Z,8.15
2023-04-02T00:17:05.608Z,8.17
2023-04-02T00:19:37.216Z,8.15
2023-04-02T00:22:07.828Z,8.14
2023-04-02T00:24:34.637Z,8.13
2023-04-02T00:27:01.371Z,8.16
2023-04-02T00:29:28.089Z,8.14
2023-04-02T00:31:55.221Z,8.13
2023-04-02T00:34:32.079Z,8.11
2023-04-02T00:36:59.292Z,8.09
2023-04-02T00:39:28.794Z,8.09
2023-04-02T00:42:06.574Z,8.11
2023-04-02T00:44:38.701Z,8.16
2023-04-02T00:47:18.988Z,8.18
2023-04-02T00:49:46.435Z,8.27
2023-04-02T00:52:18.838Z,8.31
2023-04-02T00:54:49.862Z,8.29
2023-04-02T00:57:23.288Z,8.33
2023-04-02T01:00:00.848Z,8.37
2023-04-02T01:02:31.680Z,8.41
2023-04-02T01:05:05.604Z,8.43
2023-04-02T01:08:01.001Z,8.41
2023-04-02T01:10:50.651Z,8.48
2023-04-02T01:13:37.089Z,8.44
2023-04-02T01:16:11.977Z,8.41
2023-04-02T01:19:03.963Z,8.38
2023-04-02T01:21:37.166Z,8.39
2023-04-02T01:24:06.413Z,8.38
2023-04-02T01:26:52.725Z,8.37
2023-04-02T01:29:33.924Z,8.33
2023-04-02T01:32:04.645Z,8.29
2023-04-02T01:34:32.204Z,8.22
2023-04-02T01:37:05.171Z,8.21
2023-04-02T01:40:00.702Z,8.17
2023-04-02T01:42:36.613Z,8.15
2023-04-02T01:45:11.058Z,8.15
2023-04-02T01:47:38.698Z,8.14
2023-04-02T01:50:19.409Z,8.14
2023-04-02T01:52:51.156Z,8.14
2023-04-02T01:55:22.174Z,8.16
2023-04-02T01:57:51.276Z,8.17
2023-04-02T02:00:19.078Z,8.19
2023-04-02T02:02:49.960Z,8.25
2023-04-02T02:05:19.402Z,8.25
2023-04-02T02:07:46.545Z,8.28
2023-04-02T02:10:16.051Z,8.30
2023-04-02T02:12:48.005Z,8.33
2023-04-02T02:15:20.713Z,8.31
2023-04-02T02:17:47.794Z,8.39
2023-04-02T02:20:15.072Z,8.40
2023-04-02T02:22:49.859Z,8.41
2023-04-02T02:25:21.173Z,8.44
2023-04-02T02:27:56.908Z,8.48
2023-04-02T02:30:33.534Z,8.49
2023-04-02T02:33:03.339Z,8.47
2023-04-02T02:35:41.483Z,8.45
2023-04-02T02:38:14.160Z,8.43
2023-04-02T02:40:43.936Z,8.42
2023-04-02T02:43:13.169Z,8.42
2023-04-02T02:45:42.022Z,8.40
2023-04-02T02:48:14.224Z,8.40
2023-04-02T02:50:41.750Z,8.35
2023-04-02T02:53:21.783Z,8.27
2023-04-02T02:55:52.756Z,8.22
2023-04-02T02:58:23.714Z,8.22
2023-04-02T03:00:50.635Z,8.16
2023-04-02T03:03:27.474Z,8.14
2023-04-02T03:05:57.704Z,8.11
2023-04-02T03:08:30.676Z,8.06
2023-04-02T03:11:17.702Z,8.05
2023-04-02T03:13:47.340Z,8.02
2023-04-02T03:16:33.462Z,7.99
2023-04-02T03:19:15.387Z,7.93
2023-04-02T03:21:48.797Z,7.95
2023-04-02T03:24:49.708Z,7.93
2023-04-02T03:27:22.346Z,7.90
2023-04-02T03:30:28.081Z,7.87
2023-04-02T03:33:02.649Z,7.85
2023-04-02T03:35:36.342Z,7.85
2023-04-02T03:38:23.232Z,7.84
2023-04-02T03:40:59.716Z,7.84
2023-04-02T03:43:30.248Z,7.86
2023-04-02T03:46:39.639Z,7.87
2023-04-02T03:49:29.619Z,7.92
2023-04-02T03:52:04.609Z,7.93
2023-04-02T03:54:31.467Z,7.89
2023-04-02T03:56:58.775Z,7.86
2023-04-02T03:59:31.974Z,7.86
2023-04-02T04:02:06.423Z,7.85
2023-04-02T04:04:34.357Z,7.86
2023-04-02T04:07:01.890Z,7.86
2023-04-02T04:09:38.686Z,7.87
2023-04-02T04:12:31.580Z,7.86
2023-04-02T04:15:13.452Z,7.85
2023-04-02T04:17:51.329Z,7.81
2023-04-02T04:20:24.842Z,7.81
2023-04-02T04:22:56.021Z,7.76
2023-04-02T04:25:34.066Z,7.77
2023-04-02T04:28:10.589Z,7.74
2023-04-02T04:30:50.868Z,7.70
2023-04-02T04:33:26.596Z,7.69
2023-04-02T04:35:56.287Z,7.71
2023-04-02T04:38:44.200Z,7.71
2023-04-02T04:41:17.666Z,7.71
2023-04-02T04:44:17.274Z,7.75
2023-04-02T04:47:03.840Z,7.80
2023-04-02T04:49:36.407Z,7.88
2023-04-02T04:52:06.230Z,7.96
2023-04-02T04:54:37.728Z,8.03
2023-04-02T04:57:06.026Z,8.09
2023-04-02T04:59:42.540Z,8.19
2023-04-02T05:02:21.037Z,8.25
2023-04-02T05:04:52.264Z,8.38
2023-04-02T05:07:28.910Z,8.48
2023-04-02T05:09:58.803Z,8.58
2023-04-02T05:12:45.579Z,8.68
2023-04-02T05:15:36.754Z,8.84
2023-04-02T05:18:25.471Z,8.98
2023-04-02T05:21:00.300Z,9.08
2023-04-02T05:23:35.174Z,9.22
2023-04-02T05:26:22.035Z,9.40
2023-04-02T05:28:48.670Z,9.50
2023-04-02T05:31:20.501Z,9.62
2023-04-02T05:33:48.634Z,9.78
2023-04-02T05:36:21.705Z,9.94
2023-04-02T05:38:49.325Z,10.09
2023-04-02T05:41:32.482Z,10.24
2023-04-02T05:44:10.809Z,10.41
2023-04-02T05:46:50.674Z,10.49
2023-04-02T05:49:23.537Z,10.64
2023-04-02T05:51:52.807Z,10.78
2023-04-02T05:54:23.395Z,10.95
2023-04-02T05:56:54.626Z,11.10
2023-04-02T05:59:30.985Z,11.17
2023-04-02T06:02:03.839Z,11.21
2023-04-02T06:04:43.759Z,11.26
2023-04-02T06:07:15.849Z,11.41
2023-04-02T06:09:55.365Z,11.64
2023-04-02T06:12:44.407Z,11.77
2023-04-02T06:15:15.810Z,11.84
2023-04-02T06:17:48.017Z,12.13
2023-04-02T06:20:17.270Z,12.37
2023-04-02T06:22:44.974Z,12.55
2023-04-02T06:25:18.179Z,12.54
2023-04-02T06:27:45.539Z,12.54
2023-04-02T06:30:33.529Z,12.76
2023-04-02T06:33:00.381Z,12.89
2023-04-02T06:35:27.795Z,12.88
2023-04-02T06:37:57.419Z,12.82
2023-04-02T06:40:50.797Z,12.87
2023-04-02T06:43:26.345Z,13.01
2023-04-02T06:45:55.564Z,13.15
2023-04-02T06:48:23.297Z,13.36
2023-04-02T06:51:07.246Z,13.33
2023-04-02T06:53:39.952Z,13.42
2023-04-02T06:56:31.753Z,13.55
2023-04-02T06:58:59.120Z,13.65
2023-04-02T07:01:29.146Z,13.75
2023-04-02T07:03:56.642Z,13.82
2023-04-02T07:06:23.454Z,13.73
2023-04-02T07:08:50.254Z,13.73
2023-04-02T07:11:21.010Z,13.83
2023-04-02T07:13:49.317Z,13.87
2023-04-02T07:16:18.485Z,13.85
2023-04-02T07:18:45.808Z,13.83
2023-04-02T07:21:12.602Z,13.84
2023-04-02T07:23:39.691Z,13.87
2023-04-02T07:26:07.859Z,14.03
2023-04-02T07:28:34.814Z,14.14
2023-04-02T07:31:01.848Z,14.21
2023-04-02T07:33:29.977Z,14.29
2023-04-02T07:35:58.080Z,14.25
2023-04-02T07:38:25.124Z,14.28
2023-04-02T07:40:51.897Z,14.31
2023-04-02T07:43:18.607Z,14.30
2023-04-02T07:45:45.376Z,14.13
2023-04-02T07:48:13.687Z,14.14
2023-04-02T07:50:40.758Z,14.16
2023-04-02T07:53:08.822Z,14.23
2023-04-02T07:55:35.806Z,14.38
2023-04-02T07:58:03.113Z,14.58
2023-04-02T08:00:30.047Z,14.79
2023-04-02T08:02:56.937Z,14.98
2023-04-02T08:05:23.885Z,15.07
2023-04-02T08:07:55.554Z,15.08
2023-04-02T08:10:22.941Z,15.08
2023-04-02T08:12:50.173Z,15.11
2023-04-02T08:15:17.429Z,15.08
2023-04-02T08:17:46.382Z,15.26
2023-04-02T08:20:18.191Z,15.45
2023-04-02T08:22:48.150Z,15.67
2023-04-02T08:25:15.470Z,16.00
2023-04-02T08:27:42.293Z,16.16
2023-04-02T08:30:11.709Z,16.31
2023-04-02T08:32:41.040Z,16.49
2023-04-02T08:35:10.037Z,16.62
2023-04-02T08:37:37.208Z,16.74
2023-04-02T08:40:05.229Z,16.84
2023-04-02T08:43:15.353Z,17.01
2023-04-02T08:45:55.155Z,17.09
2023-04-02T08:48:23.420Z,17.08
2023-04-02T08:50:50.771Z,16.99
2023-04-02T08:53:27.692Z,16.92
2023-04-02T08:56:05.378Z,16.70
2023-04-02T08:59:01.156Z,16.68
2023-04-02T09:01:34.980Z,16.55
2023-04-02T09:04:06.706Z,16.39
2023-04-02T09:06:34.671Z,16.26
2023-04-02T09:09:01.478Z,16.17
2023-04-02T09:11:36.483Z,16.26
2023-04-02T09:14:08.261Z,16.19
2023-04-02T09:16:41.833Z,16.15
2023-04-02T09:19:21.854Z,16.19
2023-04-02T09:22:21.264Z,16.31
2023-04-02T09:24:52.485Z,16.34
2023-04-02T09:27:21.658Z,16.35
2023-04-02T09:29:51.091Z,16.55
2023-04-02T09:32:48.428Z,16.96
2023-04-02T09:35:25.353Z,17.34
2023-04-02T09:38:28.106Z,17.46
2023-04-02T09:40:54.811Z,17.67
2023-04-02T09:43:26.386Z,17.77
2023-04-02T09:46:12.350Z,17.82
2023-04-02T09:49:01.121Z,17.83
2023-04-02T09:51:38.275Z,18.09
2023-04-02T09:54:04.888Z,18.28
2023-04-02T09:56:33.443Z,18.52
2023-04-02T09:59:22.955Z,19.13
2023-04-02T10:01:55.817Z,19.42
2023-04-02T10:04:44.013Z,19.81
2023-04-02T10:07:36.920Z,19.90
2023-04-02T10:10:25.244Z,19.83
2023-04-02T10:13:18.940Z,19.60
2023-04-02T10:15:48.330Z,19.56
2023-04-02T10:18:22.703Z,19.56
2023-04-02T10:20:51.856Z,19.82
2023-04-02T10:23:19.756Z,19.97
2023-04-02T10:25:53.984Z,19.99
2023-04-02T10:28:42.720Z,20.16
2023-04-02T10:31:17.402Z,20.24
2023-04-02T10:33:48.594Z,20.53
2023-04-02T10:36:22.614Z,20.29
2023-04-02T10:38:52.605Z,20.73
2023-04-02T10:41:25.477Z,20.98
2023-04-02T10:44:20.870Z,21.01
2023-04-02T10:46:59.953Z,20.98
2023-04-02T10:49:36.505Z,21.14
2023-04-02T10:52:27.082Z,21.15
2023-04-02T10:54:55.410Z,21.15
2023-04-02T10:57:34.363Z,21.09
2023-04-02T11:00:15.943Z,21.36
2023-04-02T11:03:01.735Z,21.83
2023-04-02T11:05:44.429Z,22.02
2023-04-02T11:08:23.645Z,22.32
2023-04-02T11:11:19.421Z,23.91
2023-04-02T11:13:46.273Z,24.69
2023-04-02T11:16:16.552Z,23.77
2023-04-02T11:18:44.921Z,23.88
2023-04-02T11:21:30.380Z,23.81
2023-04-02T11:23:59.036Z,25.42
2023-04-02T11:26:41.731Z,26.62
2023-04-02T11:29:29.629Z,27.46
2023-04-02T11:32:25.299Z,27.80
2023-04-02T11:35:05.882Z,28.40
2023-04-02T11:37:41.039Z,28.91
2023-04-02T11:40:10.759Z,29.57
2023-04-02T11:42:38.341Z,29.89
2023-04-02T11:45:21.092Z,30.40
2023-04-02T11:48:00.210Z,30.39
2023-04-02T11:50:34.166Z,30.35
2023-04-02T11:53:06.842Z,31.00
2023-04-02T11:55:35.042Z,32.22
2023-04-02T11:58:25.929Z,33.01
2023-04-02T12:01:30.094Z,32.87
2023-04-02T12:04:09.054Z,32.63
2023-04-02T12:07:11.228Z,30.96
2023-04-02T12:09:49.668Z,30.41
2023-04-02T12:12:31.654Z,29.74
2023-04-02T12:14:59.629Z,30.50
2023-04-02T12:17:35.475Z,29.30
2023-04-02T12:20:09.638Z,28.20
2023-04-02T12:22:40.835Z,28.83
2023-04-02T12:25:24.672Z,30.44
2023-04-02T12:28:17.900Z,31.86
2023-04-02T12:30:45.985Z,32.92
2023-04-02T12:33:30.690Z,33.58
2023-04-02T12:36:02.474Z,34.18
2023-04-02T12:38:33.431Z,34.24
2023-04-02T12:41:03.516Z,34.87
2023-04-02T12:43:35.334Z,35.15
2023-04-02T12:46:07.042Z,34.91
2023-04-02T12:48:34.955Z,35.54
2023-04-02T12:51:02.568Z,36.15
2023-04-02T12:53:34.608Z,35.92
2023-04-02T12:56:01.515Z,35.27
2023-04-02T12:58:29.964Z,35.61
2023-04-02T13:01:09.780Z,36.16
2023-04-02T13:03:36.596Z,36.39
2023-04-02T13:06:03.746Z,37.18
2023-04-02T13:08:33.219Z,36.92
2023-04-02T13:11:02.056Z,37.26
2023-04-02T13:13:39.849Z,37.41
2023-04-02T13:16:12.738Z,37.04
2023-04-02T13:18:40.171Z,37.74
2023-04-02T13:21:19.543Z,38.22
2023-04-02T13:23:46.659Z,37.71
2023-04-02T13:26:17.485Z,37.50
2023-04-02T13:28:56.574Z,37.66
2023-04-02T13:31:23.427Z,37.65
2023-04-02T13:33:50.183Z,37.97
2023-04-02T13:36:16.910Z,38.48
2023-04-02T13:38:43.729Z,38.19
2023-04-02T13:41:19.327Z,38.12
2023-04-02T13:43:46.015Z,38.42
2023-04-02T13:46:19.591Z,38.43
2023-04-02T13:48:46.332Z,38.77
2023-04-02T13:51:18.464Z,38.77
2023-04-02T13:53:51.546Z,39.17
2023-04-02T13:56:19.467Z,38.81
2023-04-02T13:58:46.573Z,39.10
2023-04-02T14:01:14.395Z,39.53
2023-04-02T14:03:41.492Z,39.21
2023-04-02T14:06:13.733Z,38.89
2023-04-02T14:08:58.868Z,39.28
2023-04-02T14:12:01.195Z,39.03
2023-04-02T14:15:01.222Z,39.06
2023-04-02T14:17:53.850Z,37.99
2023-04-02T14:20:26.001Z,33.64
2023-04-02T14:23:27.182Z,30.43
2023-04-02T14:26:13.384Z,27.83
2023-04-02T14:28:57.373Z,25.97
2023-04-02T14:31:37.307Z,24.80
2023-04-02T14:34:04.001Z,23.64
2023-04-02T14:36:58.639Z,22.38
2023-04-02T14:39:28.555Z,21.03
2023-04-02T14:41:59.222Z,20.24
2023-04-02T14:44:29.297Z,19.59
2023-04-02T14:47:02.145Z,19.04
2023-04-02T14:49:39.587Z,18.40
2023-04-02T14:52:14.493Z,17.85
2023-04-02T14:54:51.737Z,17.41
2023-04-02T14:57:37.814Z,17.01
2023-04-02T15:00:28.136Z,16.68
2023-04-02T15:03:22.025Z,16.01
2023-04-02T15:05:54.237Z,15.80
2023-04-02T15:08:27.285Z,15.52
2023-04-02T15:11:08.701Z,15.37
2023-04-02T15:13:48.423Z,15.27
2023-04-02T15:16:19.430Z,15.06
2023-04-02T15:18:49.176Z,14.81
2023-04-02T15:21:19.022Z,14.58
2023-04-02T15:23:54.997Z,14.44
2023-04-02T15:26:29.700Z,14.33
2023-04-02T15:29:15.769Z,14.22
2023-04-02T15:31:46.892Z,14.03
2023-04-02T15:34:27.562Z,13.92
2023-04-02T15:37:23.720Z,13.93
2023-04-02T15:40:07.027Z,13.89
2023-04-02T15:42:43.211Z,13.99
2023-04-02T15:45:17.464Z,14.13
2023-04-02T15:48:32.201Z,14.39
2023-04-02T15:51:09.375Z,14.53
2023-04-02T15:53:48.201Z,14.60
2023-04-02T15:56:24.550Z,14.77
2023-04-02T15:59:12.070Z,14.91
2023-04-02T16:02:07.289Z,14.99
2023-04-02T16:05:10.744Z,15.04
2023-04-02T16:07:37.452Z,15.00
2023-04-02T16:10:16.545Z,14.90
2023-04-02T16:12:44.795Z,14.75
2023-04-02T16:15:18.045Z,14.60
2023-04-02T16:17:56.620Z,14.50
2023-04-02T16:20:27.370Z,14.40
2023-04-02T16:23:01.145Z,14.30
2023-04-02T16:25:32.368Z,14.20
2023-04-02T16:28:03.909Z,14.07
2023-04-02T16:30:30.563Z,13.97
2023-04-02T16:33:23.222Z,13.90
2023-04-02T16:35:56.853Z,13.78
2023-04-02T16:38:58.897Z,13.68
2023-04-02T16:41:36.223Z,13.62
2023-04-02T16:44:02.908Z,13.51
2023-04-02T16:47:01.875Z,13.34
2023-04-02T16:49:46.298Z,13.17
2023-04-02T16:52:28.044Z,12.98
2023-04-02T16:55:12.601Z,12.83
2023-04-02T16:58:00.604Z,12.67
2023-04-02T17:00:56.207Z,12.45
2023-04-02T17:03:41.841Z,12.36
2023-04-02T17:06:19.665Z,12.21
2023-04-02T17:08:54.382Z,12.08
2023-04-02T17:11:25.027Z,11.98
2023-04-02T17:14:06.149Z,11.84
2023-04-02T17:16:44.676Z,11.70
2023-04-02T17:19:13.809Z,11.55
2023-04-02T17:21:43.428Z,11.46
2023-04-02T17:24:19.394Z,11.31
2023-04-02T17:26:48.836Z,11.25
2023-04-02T17:29:20.441Z,11.16
2023-04-02T17:31:47.619Z,11.09
2023-04-02T17:34:16.871Z,11.02
2023-04-02T17:37:21.069Z,10.88
2023-04-02T17:40:08.383Z,10.67
2023-04-02T17:42:52.695Z,10.56
2023-04-02T17:46:11.124Z,10.41
2023-04-02T17:48:47.551Z,10.30
2023-04-02T17:51:36.881Z,10.16
2023-04-02T17:54:22.081Z,10.02
2023-04-02T17:57:19.269Z,9.86
2023-04-02T18:00:14.690Z,9.78
2023-04-02T18:03:12.366Z,9.69
2023-04-02T18:05:45.453Z,9.59
2023-04-02T18:08:33.424Z,9.53
2023-04-02T18:11:21.728Z,9.40
2023-04-02T18:13:50.872Z,9.35
2023-04-02T18:16:38.212Z,9.32
2023-04-02T18:19:16.276Z,9.27
2023-04-02T18:21:51.468Z,9.24
2023-04-02T18:24:33.583Z,9.24
2023-04-02T18:27:13.556Z,9.28
2023-04-02T18:30:05.166Z,9.33
2023-04-02T18:32:48.841Z,9.25
2023-04-02T18:35:27.553Z,9.16
2023-04-02T18:38:11.894Z,9.11
2023-04-02T18:40:41.927Z,9.11
2023-04-02T18:43:12.576Z,9.09
2023-04-02T18:46:00.811Z,9.08
2023-04-02T18:48:56.781Z,9.05
2023-04-02T18:51:30.133Z,9.00
2023-04-02T18:54:14.610Z,8.90
2023-04-02T18:56:41.598Z,8.96
2023-04-02T18:59:29.102Z,9.00
2023-04-02T19:01:58.089Z,8.98
2023-04-02T19:04:31.013Z,8.86
2023-04-02T19:07:03.757Z,8.83
2023-04-02T19:09:33.171Z,8.77
2023-04-02T19:12:00.395Z,8.69
2023-04-02T19:14:27.199Z,8.61
2023-04-02T19:16:59.883Z,8.48
2023-04-02T19:19:38.116Z,8.37
2023-04-02T19:22:23.558Z,8.27
2023-04-02T19:25:17.903Z,8.18
2023-04-02T19:28:03.434Z,8.15
2023-04-02T19:30:50.063Z,8.14
2023-04-02T19:33:25.965Z,8.10
2023-04-02T19:35:58.752Z,8.09
2023-04-02T19:38:59.793Z,8.08
2023-04-02T19:41:34.833Z,8.09
2023-04-02T19:44:01.889Z,8.07
2023-04-02T19:46:28.779Z,8.01
2023-04-02T19:49:22.936Z,8.06
2023-04-02T19:51:50.178Z,8.10
2023-04-02T19:54:16.858Z,8.09
2023-04-02T19:56:43.948Z,8.12
2023-04-02T19:59:18.019Z,8.14
2023-04-02T20:01:46.464Z,8.18
2023-04-02T20:04:13.707Z,8.18
2023-04-02T20:06:40.750Z,8.22
2023-04-02T20:09:08.640Z,8.25
2023-04-02T20:11:36.977Z,8.28
2023-04-02T20:14:04.368Z,8.30
2023-04-02T20:16:31.395Z,8.33
2023-04-02T20:18:58.209Z,8.31
2023-04-02T20:21:25.051Z,8.29
2023-04-02T20:23:55.445Z,8.25
2023-04-02T20:26:22.798Z,8.27
2023-04-02T20:28:49.631Z,8.30
2023-04-02T20:31:18.212Z,8.32
2023-04-02T20:33:45.574Z,8.36
2023-04-02T20:36:14.714Z,8.35
2023-04-02T20:38:41.828Z,8.33
2023-04-02T20:41:09.219Z,8.31
2023-04-02T20:43:36.384Z,8.31
2023-04-02T20:46:05.662Z,8.32
2023-04-02T20:48:35.609Z,8.35
2023-04-02T20:51:04.964Z,8.34
2023-04-02T20:53:47.745Z,8.35
2023-04-02T20:56:16.162Z,8.37
2023-04-02T20:58:43.519Z,8.37
2023-04-02T21:01:16.176Z,8.38
2023-04-02T21:03:43.702Z,8.32
2023-04-02T21:06:18.332Z,8.31
2023-04-02T21:08:45.358Z,8.28
2023-04-02T21:11:12.380Z,8.26
2023-04-02T21:13:41.813Z,8.19
2023-04-02T21:16:20.206Z,8.09
2023-04-02T21:18:49.270Z,8.08
2023-04-02T21:21:16.780Z,8.14
2023-04-02T21:23:44.966Z,8.16
2023-04-02T21:26:14.709Z,8.12
2023-04-02T21:28:42.170Z,8.14
2023-04-02T21:31:14.492Z,8.15
2023-04-02T21:33:44.058Z,8.12
2023-04-02T21:36:12.968Z,8.07
2023-04-02T21:38:47.736Z,8.05
2023-04-02T21:41:18.424Z,8.02
2023-04-02T21:43:48.461Z,7.95
2023-04-02T21:46:26.235Z,7.93
2023-04-02T21:48:54.570Z,7.94
2023-04-02T21:51:23.588Z,7.93
2023-04-02T21:53:50.798Z,7.89
2023-04-02T21:56:23.302Z,7.89
2023-04-02T21:58:51.398Z,7.86
2023-04-02T22:01:26.508Z,7.86
2023-04-02T22:03:58.190Z,7.86
2023-04-02T22:06:26.290Z,7.82
2023-04-02T22:08:58.604Z,7.83
2023-04-02T22:11:28.644Z,7.83
2023-04-02T22:13:55.587Z,7.86
2023-04-02T22:16:25.246Z,7.84
2023-04-02T22:18:52.969Z,7.88
2023-04-02T22:21:19.955Z,7.83
2023-04-02T22:23:46.866Z,7.83
2023-04-02T22:26:15.820Z,7.75
2023-04-02T22:28:42.868Z,7.59
2023-04-02T22:31:16.083Z,7.55
2023-04-02T22:33:44.012Z,7.51
2023-04-02T22:36:11.955Z,7.41
2023-04-02T22:38:38.779Z,7.36
2023-04-02T22:41:15.717Z,7.29
2023-04-02T22:43:46.555Z,7.22
2023-04-02T22:46:15.843Z,7.17
2023-04-02T22:48:43.269Z,7.16
2023-04-02T22:51:11.886Z,7.17
2023-04-02T22:53:39.242Z,7.17
2023-04-02T22:56:14.613Z,7.13
2023-04-02T22:58:41.843Z,7.13
2023-04-02T23:01:12.196Z,7.15
2023-04-02T23:03:39.065Z,7.15
2023-04-02T23:06:08.537Z,7.13
2023-04-02T23:08:36.263Z,7.10
2023-04-02T23:11:05.804Z,7.06
2023-04-02T23:13:33.260Z,7.08
2023-04-02T23:16:05.567Z,7.08
2023-04-02T23:18:36.126Z,7.07
2023-04-02T23:21:03.528Z,7.01
2023-04-02T23:23:31.542Z,6.98
2023-04-02T23:26:09.094Z,6.95
2023-04-02T23:28:36.715Z,6.94
2023-04-02T23:31:05.365Z,6.92
2023-04-02T23:33:32.429Z,6.91
2023-04-02T23:35:59.291Z,6.93
2023-04-02T23:38:26.613Z,6.98
2023-04-02T23:40:53.704Z,6.99
2023-04-02T23:43:20.402Z,6.99
2023-04-02T23:45:48.901Z,6.99
2023-04-02T23:48:16.014Z,6.98
2023-04-02T23:50:44.873Z,6.95
2023-04-02T23:53:12.083Z,6.94
2023-04-02T23:55:39.368Z,6.94
2023-04-02T23:58:06.271Z,6.97
